createdAt,value
2019-04-12T00:00:22.834Z,102617.02
2019-04-12T00:02:52.114Z,102613.52
2019-04-12T00:05:21.357Z,102619.59
2019-04-12T00:07:50.592Z,102619.59
2019-04-12T00:10:19.851Z,102620.03
2019-04-12T00:12:49.046Z,102620.03
2019-04-12T00:15:18.246Z,102612.52
2019-04-12T00:17:47.489Z,102612.52
2019-04-12T00:20:16.690Z,102620.86
2019-04-12T00:22:46.490Z,102608.98
2019-04-12T00:25:17.520Z,102608.98
2019-04-12T00:27:44.348Z,102615.61
2019-04-12T00:30:13.566Z,102617.36
2019-04-12T00:32:42.844Z,102618.63
2019-04-12T00:35:12.085Z,102616.84
2019-04-12T00:37:41.294Z,102618.98
2019-04-12T00:40:10.525Z,102615.93
2019-04-12T00:42:39.744Z,102622.52
2019-04-12T00:45:08.968Z,102622.52
2019-04-12T00:47:40.253Z,102616.33
2019-04-12T00:50:11.280Z,102614.97
2019-04-12T00:52:36.700Z,102612.34
2019-04-12T00:55:06.266Z,102612.34
2019-04-12T00:57:35.470Z,102614.49
2019-04-12T01:00:05.391Z,102608.77
2019-04-12T01:02:43.256Z,102615.80
2019-04-12T01:05:20.521Z,102619.69
2019-04-12T01:08:04.990Z,102618.38
2019-04-12T01:10:37.987Z,102614.44
2019-04-12T01:13:07.245Z,102610.86
2019-04-12T01:15:36.438Z,102615.22
2019-04-12T01:18:05.698Z,102614.31
2019-04-12T01:20:36.498Z,102613.00
2019-04-12T01:23:09.667Z,102609.02
2019-04-12T01:25:34.592Z,102609.02
2019-04-12T01:28:04.232Z,102607.71
2019-04-12T01:30:33.446Z,102606.79
2019-04-12T01:33:02.703Z,102605.87
2019-04-12T01:35:31.988Z,102615.53
2019-04-12T01:38:01.410Z,102614.27
2019-04-12T01:40:30.646Z,102613.78
2019-04-12T01:42:59.879Z,102611.55
2019-04-12T01:45:29.096Z,102612.87
2019-04-12T01:47:58.319Z,102608.89
2019-04-12T01:50:27.528Z,102609.75
2019-04-12T01:52:56.750Z,102611.45
2019-04-12T01:55:25.952Z,102617.58
2019-04-12T01:57:55.164Z,102613.61
2019-04-12T02:00:24.390Z,102613.16
2019-04-12T02:02:53.656Z,102608.36
2019-04-12T02:05:22.966Z,102612.73
2019-04-12T02:07:52.157Z,102615.35
2019-04-12T02:10:21.448Z,102600.48
2019-04-12T02:12:50.642Z,102609.23
2019-04-12T02:15:19.973Z,102610.59
2019-04-12T02:17:49.185Z,102609.67
2019-04-12T02:20:18.496Z,102607.34
2019-04-12T02:22:47.666Z,102607.34
2019-04-12T02:25:21.503Z,102608.27
2019-04-12T02:27:46.134Z,102607.38
2019-04-12T02:30:15.369Z,102607.73
2019-04-12T02:32:57.398Z,102606.42
2019-04-12T02:35:39.938Z,102604.62
2019-04-12T02:38:09.158Z,102609.83
2019-04-12T02:40:38.903Z,102611.61
2019-04-12T02:43:08.120Z,102610.22
2019-04-12T02:45:38.892Z,102610.64
2019-04-12T02:48:11.748Z,102613.22
2019-04-12T02:50:49.120Z,102611.95
2019-04-12T02:53:46.516Z,102603.08
2019-04-12T02:56:43.600Z,102603.08
2019-04-12T02:59:16.585Z,102610.11
2019-04-12T03:01:46.243Z,102610.50
2019-04-12T03:04:15.461Z,102613.50
2019-04-12T03:06:44.669Z,102606.95
2019-04-12T03:09:14.065Z,102613.06
2019-04-12T03:11:43.306Z,102611.76
2019-04-12T03:14:12.505Z,102609.09
2019-04-12T03:16:41.817Z,102604.62
2019-04-12T03:19:11.013Z,102608.08
2019-04-12T03:21:40.293Z,102610.68
2019-04-12T03:24:09.602Z,102608.50
2019-04-12T03:26:38.861Z,102618.50
2019-04-12T03:29:08.080Z,102612.33
2019-04-12T03:31:37.334Z,102615.28
2019-04-12T03:34:06.594Z,102615.72
2019-04-12T03:36:35.866Z,102613.93
2019-04-12T03:39:06.396Z,102619.59
2019-04-12T03:41:35.943Z,102618.72
2019-04-12T03:44:05.451Z,102613.05
2019-04-12T03:46:34.702Z,102623.05
2019-04-12T03:49:03.947Z,102614.74
2019-04-12T03:51:33.196Z,102619.11
2019-04-12T03:54:02.493Z,102623.48
2019-04-12T03:56:31.769Z,102618.22
2019-04-12T03:59:18.583Z,102618.62
2019-04-12T04:01:53.009Z,102625.17
2019-04-12T04:04:22.262Z,102624.30
2019-04-12T04:06:51.499Z,102620.37
2019-04-12T04:09:20.988Z,102621.67
2019-04-12T04:11:50.227Z,102615.12
2019-04-12T04:14:20.017Z,102615.52
2019-04-12T04:16:55.055Z,102619.05
2019-04-12T04:19:24.336Z,102612.02
2019-04-12T04:21:54.782Z,102622.05
2019-04-12T04:24:30.756Z,102619.05
2019-04-12T04:27:19.072Z,102626.91
2019-04-12T04:29:58.743Z,102625.11
2019-04-12T04:32:53.297Z,102624.67
2019-04-12T04:35:22.508Z,102628.55
2019-04-12T04:37:51.767Z,102632.09
2019-04-12T04:40:21.003Z,102628.60
2019-04-12T04:42:50.254Z,102630.78
2019-04-12T04:45:19.482Z,102625.00
2019-04-12T04:47:48.718Z,102631.11
2019-04-12T04:50:17.930Z,102635.48
2019-04-12T04:52:47.280Z,102636.78
2019-04-12T04:55:16.596Z,102631.94
2019-04-12T04:57:45.806Z,102638.92
2019-04-12T05:00:15.024Z,102637.22
2019-04-12T05:02:44.294Z,102637.23
2019-04-12T05:05:13.606Z,102636.41
2019-04-12T05:07:42.822Z,102631.61
2019-04-12T05:10:12.077Z,102634.81
2019-04-12T05:12:41.290Z,102637.39
2019-04-12T05:15:10.572Z,102644.82
2019-04-12T05:17:40.102Z,102640.50
2019-04-12T05:20:09.092Z,102640.07
2019-04-12T05:22:38.328Z,102649.28
2019-04-12T05:25:07.562Z,102641.87
2019-04-12T05:27:36.906Z,102648.45
2019-04-12T05:30:06.150Z,102649.38
2019-04-12T05:32:35.346Z,102649.02
2019-04-12T05:35:04.658Z,102651.64
2019-04-12T05:37:33.870Z,102649.92
2019-04-12T05:40:03.129Z,102653.77
2019-04-12T05:42:32.329Z,102652.89
2019-04-12T05:45:01.558Z,102652.02
2019-04-12T05:47:52.674Z,102655.12
2019-04-12T05:50:30.760Z,102656.09
2019-04-12T05:53:01.079Z,102657.20
2019-04-12T05:55:29.772Z,102645.88
2019-04-12T05:58:13.229Z,102653.08
2019-04-12T06:00:57.748Z,102658.14
2019-04-12T06:03:28.108Z,102652.96
2019-04-12T06:05:56.632Z,102655.91
2019-04-12T06:08:26.010Z,102647.49
2019-04-12T06:10:58.256Z,102647.49
2019-04-12T06:13:24.694Z,102661.44
2019-04-12T06:15:54.154Z,102668.73
2019-04-12T06:18:23.817Z,102659.42
2019-04-12T06:21:17.918Z,102667.59
2019-04-12T06:23:47.347Z,102664.04
2019-04-12T06:26:28.597Z,102661.37
2019-04-12T06:28:57.894Z,102659.09
2019-04-12T06:31:27.230Z,102665.64
2019-04-12T06:33:56.473Z,102672.93
2019-04-12T06:36:25.767Z,102679.05
2019-04-12T06:38:54.925Z,102668.07
2019-04-12T06:41:24.208Z,102668.52
2019-04-12T06:43:53.396Z,102673.75
2019-04-12T06:46:22.660Z,102675.11
2019-04-12T06:48:52.002Z,102675.06
2019-04-12T06:51:21.318Z,102675.94
2019-04-12T06:53:50.566Z,102676.42
2019-04-12T06:56:34.606Z,102673.80
2019-04-12T06:59:03.947Z,102675.55
2019-04-12T07:01:40.579Z,102675.98
2019-04-12T07:04:23.887Z,102674.24
2019-04-12T07:06:53.130Z,102676.86
2019-04-12T07:09:22.362Z,102674.30
2019-04-12T07:11:51.687Z,102674.77
2019-04-12T07:14:20.954Z,102674.82
2019-04-12T07:16:50.212Z,102671.29
2019-04-12T07:19:19.552Z,102673.86
2019-04-12T07:21:48.819Z,102680.02
2019-04-12T07:24:18.046Z,102667.00
2019-04-12T07:26:47.257Z,102674.00
2019-04-12T07:29:16.495Z,102668.02
2019-04-12T07:31:45.749Z,102664.14
2019-04-12T07:34:15.006Z,102667.16
2019-04-12T07:36:44.281Z,102669.38
2019-04-12T07:39:13.558Z,102665.05
2019-04-12T07:41:42.847Z,102662.14
2019-04-12T07:44:12.166Z,102666.11
2019-04-12T07:46:41.410Z,102664.07
2019-04-12T07:49:10.670Z,102672.51
2019-04-12T07:51:59.064Z,102656.06
2019-04-12T07:54:43.604Z,102657.42
2019-04-12T07:57:33.596Z,102664.89
2019-04-12T08:00:17.630Z,102665.41
2019-04-12T08:03:08.654Z,102666.33
2019-04-12T08:05:42.150Z,102663.47
2019-04-12T08:08:11.397Z,102668.36
2019-04-12T08:10:40.704Z,102679.34
2019-04-12T08:13:09.914Z,102674.59
2019-04-12T08:15:39.088Z,102677.73
2019-04-12T08:18:08.334Z,102676.90
2019-04-12T08:20:37.551Z,102686.41
2019-04-12T08:23:06.786Z,102686.41
2019-04-12T08:25:36.032Z,102688.34
2019-04-12T08:28:05.248Z,102692.48
2019-04-12T08:30:34.446Z,102692.48
2019-04-12T08:33:03.730Z,102690.28
2019-04-12T08:35:32.992Z,102695.10
2019-04-12T08:38:05.081Z,102693.41
2019-04-12T08:40:31.739Z,102687.31
2019-04-12T08:43:01.007Z,102690.39
2019-04-12T08:45:30.261Z,102690.39
2019-04-12T08:47:59.530Z,102663.33
2019-04-12T08:50:28.745Z,102680.13
2019-04-12T08:52:57.969Z,102681.98
2019-04-12T08:55:27.275Z,102681.98
2019-04-12T08:57:56.461Z,102671.03
2019-04-12T09:00:25.688Z,102689.00
2019-04-12T09:02:59.114Z,102689.00
2019-04-12T09:05:32.559Z,102685.37
2019-04-12T09:07:53.474Z,102682.30
2019-04-12T09:10:22.727Z,102682.30
2019-04-12T09:12:51.949Z,102683.28
2019-04-12T09:15:21.151Z,102668.39
2019-04-12T09:17:50.390Z,102668.39
2019-04-12T09:20:38.768Z,102679.92
2019-04-12T09:23:27.026Z,102681.70
2019-04-12T09:25:59.404Z,102666.31
2019-04-12T09:28:28.633Z,102666.31
2019-04-12T09:30:57.837Z,102664.97
2019-04-12T09:33:27.072Z,102667.98
2019-04-12T09:35:56.295Z,102667.98
2019-04-12T09:38:25.492Z,102671.08
2019-04-12T09:40:56.350Z,102663.22
2019-04-12T09:43:23.948Z,102654.49
2019-04-12T09:45:53.190Z,102665.95
2019-04-12T09:48:22.459Z,102670.80
2019-04-12T09:50:51.777Z,102670.35
2019-04-12T09:53:21.070Z,102671.69
2019-04-12T09:55:50.322Z,102671.23
2019-04-12T09:58:19.505Z,102669.91
2019-04-12T10:00:48.779Z,102660.23
2019-04-12T10:03:17.971Z,102672.98
2019-04-12T10:05:47.277Z,102670.78
2019-04-12T10:08:16.457Z,102674.33
2019-04-12T10:10:45.724Z,102674.33
2019-04-12T10:13:14.950Z,102676.92
2019-04-12T10:15:44.206Z,102670.27
2019-04-12T10:18:13.406Z,102671.95
2019-04-12T10:20:42.659Z,102678.02
2019-04-12T10:23:11.927Z,102673.94
2019-04-12T10:25:41.129Z,102659.02
2019-04-12T10:28:10.384Z,102679.35
2019-04-12T10:30:39.585Z,102679.35
2019-04-12T10:33:08.808Z,102673.68
2019-04-12T10:35:38.063Z,102667.55
2019-04-12T10:38:07.287Z,102672.80
2019-04-12T10:40:36.542Z,102664.92
2019-04-12T10:43:05.718Z,102666.24
2019-04-12T10:45:52.415Z,102665.80
2019-04-12T10:48:35.514Z,102655.73
2019-04-12T10:51:27.371Z,102652.25
2019-04-12T10:54:02.294Z,102652.25
2019-04-12T10:56:31.549Z,102648.34
2019-04-12T10:59:03.135Z,102648.34
2019-04-12T11:01:30.030Z,102644.37
2019-04-12T11:03:59.246Z,102648.32
2019-04-12T11:06:30.555Z,102640.39
2019-04-12T11:08:57.698Z,102637.79
2019-04-12T11:11:26.954Z,102645.25
2019-04-12T11:13:56.234Z,102642.19
2019-04-12T11:16:27.164Z,102646.59
2019-04-12T11:18:54.778Z,102645.28
2019-04-12T11:21:24.054Z,102579.75
2019-04-12T11:23:53.340Z,102632.52
2019-04-12T11:26:22.583Z,102634.27
2019-04-12T11:28:51.816Z,102633.77
2019-04-12T11:31:21.025Z,102632.47
2019-04-12T11:33:50.337Z,102633.82
2019-04-12T11:36:19.556Z,102625.92
2019-04-12T11:38:48.839Z,102627.27
2019-04-12T11:41:18.149Z,102629.89
2019-04-12T11:43:47.453Z,102630.32
2019-04-12T11:46:16.761Z,102630.25
2019-04-12T11:48:46.048Z,102639.86
2019-04-12T11:51:15.264Z,102635.80
2019-04-12T11:53:44.504Z,102690.09
2019-04-12T11:56:13.696Z,102647.13
2019-04-12T11:58:48.306Z,102647.13
2019-04-12T12:01:40.174Z,102651.78
2019-04-12T12:04:37.452Z,102644.25
2019-04-12T12:07:25.786Z,102642.06
2019-04-12T12:10:32.172Z,102644.72
2019-04-12T12:13:19.020Z,102641.72
2019-04-12T12:16:15.156Z,102631.40
2019-04-12T12:18:44.369Z,102639.45
2019-04-12T12:21:13.586Z,102643.97
2019-04-12T12:23:42.823Z,102643.97
2019-04-12T12:26:12.031Z,102633.98
2019-04-12T12:28:41.325Z,102634.94
2019-04-12T12:31:10.555Z,102628.02
2019-04-12T12:33:39.798Z,102631.58
2019-04-12T12:36:09.010Z,102622.41
2019-04-12T12:38:38.317Z,102622.41
2019-04-12T12:41:07.560Z,102614.94
2019-04-12T12:43:36.786Z,102625.91
2019-04-12T12:46:06.005Z,102615.75
2019-04-12T12:48:35.276Z,102613.50
2019-04-12T12:51:04.512Z,102609.55
2019-04-12T12:53:33.818Z,102611.27
2019-04-12T12:56:03.067Z,102608.20
2019-04-12T12:58:32.341Z,102604.21
2019-04-12T13:01:01.541Z,102605.14
2019-04-12T13:03:30.772Z,102609.12
2019-04-12T13:06:02.135Z,102604.30
2019-04-12T13:08:29.315Z,102596.83
2019-04-12T13:10:58.559Z,102601.23
2019-04-12T13:13:27.810Z,102609.20
2019-04-12T13:15:57.036Z,102595.99
2019-04-12T13:18:26.257Z,102599.08
2019-04-12T13:20:55.491Z,102591.56
2019-04-12T13:23:24.751Z,102596.39
2019-04-12T13:25:53.929Z,102597.20
2019-04-12T13:28:23.324Z,102595.78
2019-04-12T13:31:23.931Z,102595.30
2019-04-12T13:34:15.689Z,102590.45
2019-04-12T13:36:50.442Z,102590.49
2019-04-12T13:39:37.522Z,102588.30
2019-04-12T13:42:08.898Z,102584.26
2019-04-12T13:44:38.099Z,102587.35
2019-04-12T13:47:07.305Z,102587.30
2019-04-12T13:49:36.519Z,102583.81
2019-04-12T13:52:05.735Z,102584.30
2019-04-12T13:54:34.982Z,102586.64
2019-04-12T13:57:04.231Z,102591.52
2019-04-12T13:59:33.485Z,102591.16
2019-04-12T14:02:02.698Z,102583.70
2019-04-12T14:04:31.977Z,102589.87
2019-04-12T14:07:01.222Z,102590.72
2019-04-12T14:09:30.421Z,102593.69
2019-04-12T14:11:59.699Z,102590.55
2019-04-12T14:14:28.945Z,102592.14
2019-04-12T14:16:58.250Z,102597.41
2019-04-12T14:19:27.577Z,102578.91
2019-04-12T14:21:56.856Z,102574.56
2019-04-12T14:24:26.101Z,102542.97
2019-04-12T14:26:55.321Z,102569.46
2019-04-12T14:29:24.540Z,102569.46
2019-04-12T14:31:53.762Z,102567.79
2019-04-12T14:34:48.065Z,102571.78
2019-04-12T14:37:25.896Z,102570.03
2019-04-12T14:39:55.181Z,102571.81
2019-04-12T14:42:24.391Z,102571.83
2019-04-12T14:45:15.435Z,102560.61
2019-04-12T14:47:46.333Z,102560.61
2019-04-12T14:50:15.599Z,102556.77
2019-04-12T14:52:44.860Z,102555.34
2019-04-12T14:55:14.030Z,102554.81
2019-04-12T14:57:43.287Z,102554.75
2019-04-12T15:00:12.520Z,102550.87
2019-04-12T15:02:41.783Z,102554.07
2019-04-12T15:05:11.124Z,102556.86
2019-04-12T15:07:40.487Z,102559.60
2019-04-12T15:10:09.712Z,102554.76
2019-04-12T15:12:38.912Z,102570.14
2019-04-12T15:15:08.133Z,102558.33
2019-04-12T15:17:37.374Z,102555.71
2019-04-12T15:20:06.720Z,102550.48
2019-04-12T15:22:35.983Z,102554.52
2019-04-12T15:25:05.538Z,102549.23
2019-04-12T15:27:34.794Z,102544.41
2019-04-12T15:30:04.523Z,102547.99
2019-04-12T15:32:33.789Z,102544.96
2019-04-12T15:35:03.115Z,102537.08
2019-04-12T15:37:32.375Z,102537.08
2019-04-12T15:40:01.617Z,102544.56
2019-04-12T15:42:30.863Z,102541.00
2019-04-12T15:45:00.113Z,102541.44
2019-04-12T15:47:29.324Z,102538.39
2019-04-12T15:49:58.571Z,102549.84
2019-04-12T15:52:27.848Z,102550.30
2019-04-12T15:54:57.466Z,102553.35
2019-04-12T15:57:26.839Z,102556.42
2019-04-12T15:59:56.060Z,102545.84
2019-04-12T16:02:25.298Z,102553.27
2019-04-12T16:04:54.521Z,102560.21
2019-04-12T16:07:32.638Z,102569.16
2019-04-12T16:10:01.938Z,102569.16
2019-04-12T16:12:51.519Z,102577.64
2019-04-12T16:16:03.388Z,102577.05
2019-04-12T16:18:32.635Z,102577.64
2019-04-12T16:21:01.818Z,102576.16
2019-04-12T16:23:31.037Z,102571.72
2019-04-12T16:26:00.285Z,102573.91
2019-04-12T16:28:36.121Z,102571.25
2019-04-12T16:31:27.159Z,102573.47
2019-04-12T16:34:14.120Z,102572.16
2019-04-12T16:36:47.554Z,102577.84
2019-04-12T16:39:19.373Z,102583.98
2019-04-12T16:41:48.585Z,102586.58
2019-04-12T16:44:17.775Z,102581.67
2019-04-12T16:46:47.023Z,102582.48
2019-04-12T16:49:16.266Z,102587.64
2019-04-12T16:51:45.537Z,102582.35
2019-04-12T16:54:14.774Z,102586.22
2019-04-12T16:56:43.987Z,102592.79
2019-04-12T16:59:13.348Z,102593.56
2019-04-12T17:01:42.563Z,102591.73
2019-04-12T17:04:12.127Z,102592.98
2019-04-12T17:06:41.368Z,102588.12
2019-04-12T17:09:10.586Z,102587.58
2019-04-12T17:11:39.827Z,102587.91
2019-04-12T17:14:09.118Z,102585.28
2019-04-12T17:16:38.325Z,102403.23
2019-04-12T17:19:07.585Z,102590.53
2019-04-12T17:21:36.825Z,102586.52
2019-04-12T17:24:06.059Z,102589.10
2019-04-12T17:26:35.261Z,102586.88
2019-04-12T17:29:04.521Z,102589.02
2019-04-12T17:31:33.757Z,102587.67
2019-04-12T17:34:03.014Z,102586.80
2019-04-12T17:36:32.224Z,102584.17
2019-04-12T17:39:01.479Z,102585.92
2019-04-12T17:41:30.700Z,102581.55
2019-04-12T17:43:59.961Z,102580.20
2019-04-12T17:46:29.171Z,102582.82
2019-04-12T17:49:17.567Z,102581.47
2019-04-12T17:51:50.192Z,102589.73
2019-04-12T17:54:38.542Z,102590.57
2019-04-12T17:57:07.809Z,102584.89
2019-04-12T17:59:37.028Z,102581.39
2019-04-12T18:02:13.209Z,102581.78
2019-04-12T18:05:01.379Z,102585.23
2019-04-12T18:07:30.784Z,102586.16
2019-04-12T18:10:00.036Z,102588.78
2019-04-12T18:12:29.240Z,102586.99
2019-04-12T18:14:58.532Z,102586.16
2019-04-12T18:17:27.732Z,102584.41
2019-04-12T18:19:56.977Z,102586.16
2019-04-12T18:22:26.196Z,102594.90
2019-04-12T18:24:55.472Z,102592.23
2019-04-12T18:27:24.695Z,102593.55
2019-04-12T18:29:54.028Z,102602.73
2019-04-12T18:32:23.321Z,102596.17
2019-04-12T18:34:52.547Z,102595.77
2019-04-12T18:37:21.803Z,102602.33
2019-04-12T18:39:51.027Z,102605.34
2019-04-12T18:42:20.246Z,102601.41
2019-04-12T18:44:49.597Z,102603.52
2019-04-12T18:47:18.903Z,102603.52
2019-04-12T18:49:48.142Z,102607.05
2019-04-12T18:52:17.426Z,102613.95
2019-04-12T18:54:46.724Z,102609.15
2019-04-12T18:57:15.963Z,102619.60
2019-04-12T18:59:45.203Z,102617.45
2019-04-12T19:02:26.318Z,102613.95
2019-04-12T19:04:43.699Z,102621.31
2019-04-12T19:07:15.599Z,102611.69
2019-04-12T19:09:44.910Z,102625.24
2019-04-12T19:12:14.135Z,102632.19
2019-04-12T19:14:43.381Z,102623.02
2019-04-12T19:17:17.829Z,102618.24
2019-04-12T19:19:47.077Z,102632.63
2019-04-12T19:22:16.303Z,102625.15
2019-04-12T19:24:45.554Z,102620.73
2019-04-12T19:27:14.797Z,102623.75
2019-04-12T19:29:44.024Z,102626.37
2019-04-12T19:32:41.390Z,102619.81
2019-04-12T19:35:28.418Z,102625.06
2019-04-12T19:38:22.618Z,102622.48
2019-04-12T19:40:52.652Z,102618.55
2019-04-12T19:43:21.855Z,102620.30
2019-04-12T19:45:51.122Z,102622.48
2019-04-12T19:48:20.464Z,102623.01
2019-04-12T19:50:49.718Z,102618.55
2019-04-12T19:53:19.053Z,102615.05
2019-04-12T19:55:48.536Z,102613.27
2019-04-12T19:58:17.779Z,102619.41
2019-04-12T20:00:47.036Z,102621.12
2019-04-12T20:03:16.265Z,102626.37
2019-04-12T20:05:45.519Z,102619.86
2019-04-12T20:08:14.746Z,102620.73
2019-04-12T20:10:44.067Z,102615.88
2019-04-12T20:13:13.329Z,102616.71
2019-04-12T20:15:42.578Z,102621.91
2019-04-12T20:18:11.820Z,102621.91
2019-04-12T20:20:41.485Z,102625.84
2019-04-12T20:23:10.776Z,102618.41
2019-04-12T20:25:40.054Z,102621.38
2019-04-12T20:28:09.287Z,102625.74
2019-04-12T20:30:38.517Z,102621.32
2019-04-12T20:33:07.736Z,102622.55
2019-04-12T20:35:37.005Z,102623.45
2019-04-12T20:38:06.250Z,102622.93
2019-04-12T20:40:35.441Z,102624.67
2019-04-12T20:43:04.675Z,102629.48
2019-04-12T20:45:33.979Z,102626.33
2019-04-12T20:48:03.231Z,102626.23
2019-04-12T20:50:32.491Z,102624.47
2019-04-12T20:53:02.102Z,102622.23
2019-04-12T20:55:31.335Z,102623.06
2019-04-12T20:58:00.618Z,102628.75
2019-04-12T21:00:29.835Z,102623.45
2019-04-12T21:02:59.115Z,102631.70
2019-04-12T21:05:28.446Z,102637.31
2019-04-12T21:07:57.595Z,102630.23
2019-04-12T21:10:26.822Z,102630.67
2019-04-12T21:12:56.075Z,102631.50
2019-04-12T21:15:25.394Z,102640.22
2019-04-12T21:17:54.643Z,102627.95
2019-04-12T21:20:23.887Z,102633.19
2019-04-12T21:22:53.139Z,102640.11
2019-04-12T21:25:22.389Z,102640.98
2019-04-12T21:27:51.631Z,102638.69
2019-04-12T21:30:25.801Z,102637.77
2019-04-12T21:32:53.087Z,102635.15
2019-04-12T21:35:19.434Z,102638.55
2019-04-12T21:37:48.716Z,102637.99
2019-04-12T21:40:17.935Z,102630.02
2019-04-12T21:42:47.208Z,102637.33
2019-04-12T21:45:17.824Z,102638.52
2019-04-12T21:47:45.649Z,102628.41
2019-04-12T21:50:14.906Z,102627.86
2019-04-12T21:52:44.259Z,102635.17
2019-04-12T21:55:13.589Z,102627.22
2019-04-12T21:57:42.907Z,102625.89
2019-04-12T22:00:12.589Z,102629.32
2019-04-12T22:02:41.801Z,102625.34
2019-04-12T22:05:11.203Z,102624.90
2019-04-12T22:07:40.445Z,102625.34
2019-04-12T22:10:09.645Z,102626.27
2019-04-12T22:12:38.899Z,102624.95
2019-04-12T22:15:08.138Z,102624.95
2019-04-12T22:17:37.359Z,102619.72
2019-04-12T22:20:06.751Z,102629.34
2019-04-12T22:22:36.045Z,102626.32
2019-04-12T22:25:05.317Z,102626.72
2019-04-12T22:27:34.591Z,102625.89
2019-04-12T22:30:04.027Z,102629.34
2019-04-12T22:32:33.326Z,102624.58
2019-04-12T22:35:02.545Z,102626.32
2019-04-12T22:37:31.867Z,102620.66
2019-04-12T22:40:01.117Z,102618.04
2019-04-12T22:42:30.355Z,102617.56
2019-04-12T22:44:59.639Z,102617.55
2019-04-12T22:47:28.855Z,102620.16
2019-04-12T22:49:58.086Z,102613.19
2019-04-12T22:52:27.355Z,102612.31
2019-04-12T22:54:56.579Z,102615.31
2019-04-12T22:57:25.835Z,102613.06
2019-04-12T22:59:55.073Z,102604.72
2019-04-12T23:02:24.309Z,102611.64
2019-04-12T23:04:53.529Z,102605.09
2019-04-12T23:07:22.761Z,102603.28
2019-04-12T23:09:51.988Z,102601.50
2019-04-12T23:12:21.230Z,102604.55
2019-04-12T23:14:50.466Z,102610.16
2019-04-12T23:17:19.659Z,102606.11
2019-04-12T23:19:48.894Z,102608.70
2019-04-12T23:22:18.127Z,102602.56
2019-04-12T23:24:47.354Z,102598.64
2019-04-12T23:27:16.597Z,102597.75
2019-04-12T23:29:45.804Z,102596.44
2019-04-12T23:32:15.523Z,102598.98
2019-04-12T23:35:12.747Z,102601.98
2019-04-12T23:37:43.852Z,102597.58
2019-04-12T23:40:13.071Z,102594.95
2019-04-12T23:42:42.290Z,102597.52
2019-04-12T23:45:11.551Z,102590.98
2019-04-12T23:47:40.811Z,102597.94
2019-04-12T23:50:10.050Z,102595.71
2019-04-12T23:52:39.261Z,102590.84
2019-04-12T23:55:08.509Z,102586.91
2019-04-12T23:57:37.794Z,102591.28
